Time;durP1;ratioP1;P1;durP2;ratioP2;P2;SDS_P1;SDS_P2;PMS_P1;PMS_P2;Temp;Humidity;BMP_temperature;BMP_pressure;BME280_temperature;BME280_humidity;BME280_pressure;Samples;Min_cycle;Max_cycle;Signal;HPM_P1;HPM_P2
2022/03/24 00:00:10;;;;;;;3.30;1.08;;;5.50;99.90;;;5.16;91.93;100972.28;4973585;28;20229;-75
2022/03/24 00:02:41;;;;;;;3.33;1.10;;;5.50;99.90;;;5.17;93.01;100994.16;4974559;28;20209;-75
2022/03/24 00:05:11;;;;;;;4.00;2.58;;;5.40;99.90;;;5.02;92.73;100979.59;4974558;28;20225;-75
2022/03/24 00:07:41;;;;;;;2.35;0.80;;;5.40;99.90;;;5.14;92.21;100997.53;4974909;28;20216;-75
2022/03/24 00:10:10;;;;;;;2.47;1.48;;;5.30;99.90;;;4.96;93.54;100992.47;4973795;28;20206;-75
2022/03/24 00:12:39;;;;;;;1.65;0.70;;;5.30;99.90;;;5.07;93.49;101022.63;4973717;28;20209;-74
2022/03/24 00:15:08;;;;;;;2.25;0.90;;;5.30;99.90;;;4.96;94.10;101005.56;4956039;28;20241;-75
2022/03/24 00:17:36;;;;;;;2.60;0.98;;;5.30;99.90;;;4.83;95.08;101006.78;4963253;28;20216;-75
2022/03/24 00:20:06;;;;;;;1.92;0.80;;;5.20;99.90;;;4.69;97.04;101017.53;4968156;28;20225;-75
2022/03/24 00:22:34;;;;;;;4.70;1.48;;;5.20;99.90;;;4.53;98.33;101017.72;4974313;28;20209;-75
2022/03/24 00:25:02;;;;;;;3.25;1.10;;;5.10;99.90;;;4.58;97.27;101022.31;4973572;28;20232;-74
2022/03/24 00:27:30;;;;;;;4.43;1.38;;;5.00;99.90;;;4.47;97.22;101019.25;4973688;28;20209;-75
2022/03/24 00:29:58;;;;;;;3.55;1.17;;;5.00;99.90;;;4.43;97.23;101021.69;4974277;28;20209;-75
2022/03/24 00:32:26;;;;;;;5.57;1.73;;;4.90;99.90;;;4.53;96.91;101043.91;4965148;28;20205;-75
2022/03/24 00:34:54;;;;;;;2.03;0.82;;;4.90;99.90;;;4.59;97.06;101054.66;4964910;28;20244;-75
2022/03/24 00:37:22;;;;;;;2.42;0.90;;;4.80;99.90;;;4.48;97.52;101046.34;4972038;28;20205;-75
2022/03/24 00:39:50;;;;;;;4.00;1.30;;;4.80;99.90;;;4.41;98.39;101049.53;4959139;28;20229;-75
2022/03/24 00:42:21;;;;;;;2.17;0.80;;;4.80;99.90;;;4.44;96.68;101054.91;4958874;28;20208;-75
2022/03/24 00:44:49;;;;;;;4.65;2.83;;;4.70;99.90;;;4.49;96.46;101056.00;4959429;28;20232;-75
2022/03/24 00:47:17;;;;;;;3.40;1.15;;;4.70;99.90;;;4.51;97.49;101067.44;4961602;28;20205;-75
2022/03/24 00:49:47;;;;;;;2.28;0.93;;;4.70;99.90;;;4.45;97.93;101078.53;4964713;28;20216;-75
2022/03/24 00:52:18;;;;;;;1.60;0.73;;;4.70;99.90;;;4.39;98.36;101075.66;4956376;28;20205;-75
2022/03/24 00:54:47;;;;;;;1.85;0.75;;;4.70;99.90;;;4.58;96.60;101095.66;4960026;28;20225;-75
2022/03/24 00:57:17;;;;;;;3.05;1.02;;;4.70;99.90;;;4.33;97.76;101070.13;4973342;28;20206;-75
2022/03/24 00:59:46;;;;;;;2.42;0.80;;;4.70;99.90;;;4.22;98.39;101065.25;4973368;28;20209;-76
2022/03/24 01:02:14;;;;;;;2.88;0.88;;;4.60;99.90;;;4.32;99.26;101083.16;4962961;28;20209;-76
2022/03/24 01:04:42;;;;;;;2.70;0.93;;;4.60;99.90;;;4.10;98.83;101073.47;4962433;28;20309;-75
2022/03/24 01:07:10;;;;;;;3.28;1.08;;;4.60;99.90;;;3.94;99.06;101057.88;4956301;28;20208;-75
2022/03/24 01:09:38;;;;;;;4.55;2.10;;;4.40;99.90;;;3.89;100.00;101065.50;4970237;28;20686;-76
2022/03/24 01:12:07;;;;;;;3.33;1.38;;;4.40;99.90;;;3.86;99.61;101062.72;4956706;28;20204;-75
2022/03/24 01:14:37;;;;;;;5.40;1.55;;;4.30;99.90;;;3.88;100.00;101079.41;4940492;28;20228;-75
2022/03/24 01:17:07;;;;;;;4.47;1.33;;;4.30;99.90;;;3.76;100.00;101095.44;4969206;28;20208;-76
2022/03/24 01:19:37;;;;;;;4.53;1.35;;;4.20;99.90;;;3.77;100.00;101091.09;4956449;28;20213;-76
2022/03/24 01:22:05;;;;;;;3.67;1.17;;;4.20;99.90;;;3.71;100.00;101091.69;4973480;28;20205;-76
2022/03/24 01:24:37;;;;;;;1.80;0.75;;;4.20;99.90;;;3.71;100.00;101090.81;4962930;28;20229;-76
2022/03/24 01:27:06;;;;;;;1.65;0.75;;;4.10;99.90;;;3.75;100.00;101092.75;4969354;28;20228;-75
2022/03/24 01:29:34;;;;;;;2.72;0.90;;;4.00;99.90;;;3.95;99.95;101123.38;4956717;28;20220;-76
2022/03/24 01:32:03;;;;;;;2.30;0.80;;;4.10;99.90;;;3.69;100.00;101102.91;4967431;28;20201;-76
2022/03/24 01:34:31;;;;;;;2.78;0.90;;;4.00;99.90;;;3.70;100.00;101102.09;4963122;28;20233;-75
2022/03/24 01:36:59;;;;;;;2.63;1.02;;;4.00;99.90;;;3.70;100.00;101103.00;4955879;28;20217;-75
2022/03/24 01:39:29;;;;;;;2.33;0.88;;;4.00;99.90;;;3.72;100.00;101118.75;4972338;28;20209;-75
2022/03/24 01:41:57;;;;;;;3.53;1.10;;;4.00;99.90;;;3.73;100.00;101115.31;4959488;28;20716;-76
2022/03/24 01:44:26;;;;;;;4.43;1.25;;;4.00;99.90;;;3.65;100.00;101124.53;4963586;28;20236;-75
2022/03/24 01:47:01;;;;;;;3.05;1.00;;;4.00;99.90;;;3.53;100.00;101130.06;4961656;28;20205;-75
2022/03/24 01:49:33;;;;;;;3.25;1.00;;;3.90;99.90;;;3.28;100.00;101117.53;4955044;28;20208;-75
2022/03/24 01:52:02;;;;;;;2.70;0.85;;;3.80;99.90;;;3.47;100.00;101140.22;4966981;28;20228;-76
2022/03/24 01:54:32;;;;;;;4.03;1.25;;;3.80;99.90;;;3.58;100.00;101162.56;4963694;28;20229;-75
2022/03/24 01:57:02;;;;;;;4.50;1.40;;;3.80;99.90;;;3.35;100.00;101144.84;4937929;28;20198;-76
2022/03/24 01:59:30;;;;;;;4.32;1.35;;;3.70;99.90;;;3.37;100.00;101144.09;4924673;28;20205;-75
2022/03/24 02:01:58;;;;;;;3.13;1.08;;;3.70;99.90;;;3.16;100.00;101148.28;4964449;28;20240;-75
2022/03/24 02:04:26;;;;;;;2.15;0.80;;;3.60;99.90;;;3.08;100.00;101147.00;4964358;28;20224;-76
2022/03/24 02:06:55;;;;;;;3.90;1.30;;;3.50;99.90;;;3.27;100.00;101172.34;4955263;28;20201;-75
2022/03/24 02:09:23;;;;;;;2.28;0.80;;;3.50;99.90;;;3.22;100.00;101177.34;4970148;28;20221;-75
2022/03/24 02:11:52;;;;;;;3.50;1.27;;;3.50;99.90;;;3.27;100.00;101185.41;4955881;28;20209;-76
2022/03/24 02:14:20;;;;;;;1.25;0.65;;;3.50;99.90;;;3.19;100.00;101169.34;4962946;28;20232;-76
2022/03/24 02:16:49;;;;;;;3.65;1.08;;;3.40;99.90;;;3.31;100.00;101188.25;4949722;28;20204;-76
2022/03/24 02:19:21;;;;;;;1.20;0.60;;;3.40;99.90;;;3.22;100.00;101182.56;4958848;28;20209;-75
2022/03/24 02:21:56;;;;;;;3.10;1.10;;;3.40;99.90;;;3.12;100.00;101173.38;4958815;28;20235;-76
2022/03/24 02:24:26;;;;;;;1.25;0.70;;;3.40;99.90;;;3.20;100.00;101192.94;4972001;28;20224;-76
2022/03/24 02:26:54;;;;;;;4.18;1.30;;;3.40;99.90;;;3.25;100.00;101192.28;4971860;28;20212;-76
2022/03/24 02:29:25;;;;;;;3.38;1.13;;;3.40;99.90;;;3.26;100.00;101192.34;4971104;28;20216;-76
2022/03/24 02:31:54;;;;;;;2.72;0.93;;;3.40;99.90;;;3.26;100.00;101191.44;4972766;28;20243;-76
2022/03/24 02:34:47;;;;;;;3.15;1.10;;;3.40;99.90;;;3.12;100.00;101194.28;4954635;28;20305;-75
2022/03/24 02:37:22;;;;;;;3.58;1.15;;;3.40;99.90;;;2.94;100.00;101187.22;4971776;28;20209;-76
2022/03/24 02:39:53;;;;;;;2.42;0.90;;;3.30;99.90;;;3.02;100.00;101196.34;4972294;28;20196;-76
2022/03/24 02:42:26;;;;;;;2.95;1.00;;;3.30;99.90;;;2.98;100.00;101212.66;4971708;28;20233;-76
2022/03/24 02:45:03;;;;;;;2.47;0.95;;;3.30;99.90;;;2.89;100.00;101195.69;4967514;28;20221;-76
2022/03/24 02:47:31;;;;;;;2.90;1.00;;;3.20;99.90;;;2.77;100.00;101195.06;4971637;28;20224;-75
2022/03/24 02:50:00;;;;;;;2.55;0.90;;;3.20;99.90;;;2.85;100.00;101200.69;4965305;28;20223;-76
2022/03/24 02:52:28;;;;;;;2.90;0.98;;;3.20;99.90;;;2.88;100.00;101213.91;4965872;28;20213;-77
2022/03/24 02:54:56;;;;;;;1.38;0.60;;;3.10;99.90;;;2.81;100.00;101211.78;4960047;28;20240;-77
2022/03/24 02:57:24;;;;;;;2.33;0.80;;;3.20;99.90;;;2.63;100.00;101196.06;4971634;28;20220;-77
2022/03/24 02:59:52;;;;;;;3.47;1.20;;;2.90;99.90;;;2.83;100.00;101226.72;4966960;28;20570;-77
2022/03/24 03:02:20;;;;;;;3.30;2.03;;;3.10;99.90;;;2.83;100.00;101238.91;4970279;28;20233;-79
2022/03/24 03:04:49;;;;;;;3.92;1.23;;;3.10;99.90;;;2.89;100.00;101252.28;4972373;28;20228;-80
2022/03/24 03:07:20;;;;;;;3.65;1.17;;;3.20;99.90;;;2.84;100.00;101248.53;4971925;28;20220;-77
2022/03/24 03:09:49;;;;;;;3.83;1.20;;;3.10;99.90;;;2.75;100.00;101245.44;4955139;28;20206;-77
2022/03/24 03:12:17;;;;;;;3.50;1.20;;;3.00;99.90;;;2.73;100.00;101242.75;4960799;28;20213;-77
2022/03/24 03:14:48;;;;;;;3.63;1.05;;;3.00;99.90;;;2.67;100.00;101249.34;4976221;28;20259;-79
2022/03/24 03:17:16;;;;;;;1.95;0.70;;;3.00;99.90;;;2.81;100.00;101271.88;4976385;28;20212;-77
2022/03/24 03:19:46;;;;;;;3.30;1.17;;;3.00;99.90;;;2.64;100.00;101260.53;4975979;28;20205;-77
2022/03/24 03:22:15;;;;;;;2.38;0.82;;;2.90;99.90;;;2.50;100.00;101266.69;4974610;28;20217;-77
2022/03/24 03:24:44;;;;;;;1.73;0.80;;;2.90;99.90;;;2.50;100.00;101264.06;4976192;28;20225;-78
2022/03/24 03:27:12;;;;;;;2.88;1.10;;;2.90;99.90;;;2.62;100.00;101298.72;4975876;28;20205;-80
2022/03/24 03:29:43;;;;;;;2.35;0.88;;;2.80;99.90;;;2.48;100.00;101283.97;4959109;28;20209;-78
2022/03/24 03:32:12;;;;;;;1.58;0.70;;;3.00;99.90;;;2.54;100.00;101286.91;4976432;28;20201;-78
2022/03/24 03:34:41;;;;;;;2.13;0.85;;;3.50;99.90;;;2.57;100.00;101300.16;4974233;28;20229;-78
2022/03/24 03:37:11;;;;;;;3.80;1.15;;;3.20;99.90;;;2.52;100.00;101292.06;4957387;28;20208;-78
2022/03/24 03:39:40;;;;;;;3.72;1.50;;;2.90;99.90;;;2.39;100.00;101299.13;4972567;28;20233;-77
2022/03/24 03:42:09;;;;;;;1.90;0.80;;;2.70;99.90;;;2.40;100.00;101304.44;4974919;28;20229;-77
2022/03/24 03:44:37;;;;;;;5.07;1.50;;;3.90;99.90;;;2.52;100.00;101331.22;4965369;28;20225;-77
2022/03/24 03:47:06;;;;;;;2.97;1.08;;;2.70;99.90;;;2.41;100.00;101319.28;4971350;28;20210;-77
2022/03/24 03:49:37;;;;;;;6.63;1.92;;;2.70;99.90;;;2.66;100.00;101358.13;4973052;28;20208;-77
2022/03/24 03:52:24;;;;;;;5.22;1.50;;;2.70;99.90;;;2.60;100.00;101342.13;4967976;28;20212;-76
2022/03/24 03:54:52;;;;;;;3.00;1.08;;;3.00;99.90;;;2.24;100.00;101323.56;4972860;28;20240;-77
2022/03/24 03:57:20;;;;;;;7.15;2.08;;;3.10;99.90;;;2.48;100.00;101344.03;4977447;28;20290;-77
2022/03/24 03:59:48;;;;;;;6.93;1.92;;;2.70;99.90;;;2.53;100.00;101351.31;4972741;28;20221;-77
2022/03/24 04:02:16;;;;;;;6.07;1.77;;;2.60;99.90;;;2.58;100.00;101357.69;4973669;28;20229;-78
2022/03/24 04:04:44;;;;;;;6.03;1.63;;;3.30;99.90;;;2.53;100.00;101366.97;4972776;28;20244;-80
2022/03/24 04:07:12;;;;;;;5.53;1.65;;;3.20;99.90;;;2.49;100.00;101359.78;4973403;28;20220;-81
2022/03/24 04:09:40;;;;;;;6.45;1.92;;;2.60;99.90;;;2.48;100.00;101354.47;4972826;28;20228;-80
2022/03/24 04:12:08;;;;;;;5.63;1.67;;;3.30;99.90;;;2.31;100.00;101339.56;4972456;28;20209;-78
2022/03/24 04:14:36;;;;;;;4.55;1.48;;;2.70;99.90;;;2.33;100.00;101341.47;4973018;28;20233;-82
2022/03/24 04:17:04;;;;;;;5.35;1.67;;;2.70;99.90;;;2.47;100.00;101378.78;4958183;28;20209;-75
2022/03/24 04:19:32;;;;;;;5.65;1.73;;;2.70;99.90;;;2.31;100.00;101369.19;4958583;28;20201;-75
2022/03/24 04:22:01;;;;;;;5.63;1.73;;;3.10;99.90;;;2.09;100.00;101361.84;4972436;28;20225;-75
2022/03/24 04:24:29;;;;;;;5.43;1.65;;;2.70;99.90;;;2.06;100.00;101358.16;4972354;28;20221;-75
2022/03/24 04:26:56;;;;;;;6.53;1.95;;;2.40;99.90;;;1.96;100.00;101356.72;4956462;28;20213;-77
2022/03/24 04:29:24;;;;;;;5.18;1.60;;;2.40;99.90;;;1.95;100.00;101367.06;4969137;28;20206;-78
2022/03/24 04:31:52;;;;;;;2.90;1.05;;;2.30;99.90;;;1.99;100.00;101384.69;4968242;28;20220;-77
2022/03/24 04:34:20;;;;;;;1.88;0.80;;;2.30;99.90;;;2.09;100.00;101403.59;4974851;28;20245;-79
2022/03/24 04:36:48;;;;;;;2.08;0.90;;;2.30;99.90;;;2.03;100.00;101402.31;4974063;28;20228;-77
2022/03/24 04:39:15;;;;;;;3.38;1.17;;;2.30;99.90;;;2.03;100.00;101394.50;4970872;28;20205;-77
2022/03/24 04:41:43;;;;;;;6.72;1.85;;;2.30;99.90;;;2.06;100.00;101408.63;4967615;28;20244;-77
2022/03/24 04:44:11;;;;;;;8.63;2.40;;;2.40;99.90;;;1.80;100.00;101398.38;4968596;28;20221;-78
2022/03/24 04:46:39;;;;;;;5.20;1.65;;;2.20;99.90;;;1.73;100.00;101391.00;4971007;28;20201;-76
2022/03/24 04:49:08;;;;;;;5.28;1.60;;;2.70;99.90;;;1.83;100.00;101401.16;4971391;28;20217;-77
2022/03/24 04:51:37;;;;;;;6.70;2.05;;;2.10;99.90;;;1.82;100.00;101412.41;4970973;28;20202;-78
2022/03/24 04:54:06;;;;;;;9.25;2.53;;;2.10;99.90;;;1.77;100.00;101406.91;4958875;28;20646;-80
2022/03/24 04:56:34;;;;;;;4.57;1.48;;;2.20;99.90;;;1.62;100.00;101398.16;4958725;28;20210;-77
2022/03/24 04:59:02;;;;;;;4.22;1.35;;;2.00;99.90;;;1.73;100.00;101417.97;4964816;28;20209;-77
2022/03/24 05:01:30;;;;;;;4.97;1.52;;;2.00;99.90;;;1.71;100.00;101435.22;4973406;28;20210;-80
2022/03/24 05:04:00;;;;;;;5.57;1.60;;;2.00;99.90;;;1.69;100.00;101428.13;4969161;28;20209;-81
2022/03/24 05:06:29;;;;;;;5.15;1.55;;;2.20;99.90;;;1.78;100.00;101459.97;4969954;28;20217;-78
2022/03/24 05:08:57;;;;;;;9.27;2.63;;;2.00;99.90;;;1.75;100.00;101452.88;4971755;28;20215;-77
2022/03/24 05:11:25;;;;;;;3.53;1.20;;;2.00;99.90;;;1.77;100.00;101455.56;4970616;28;20213;-77
2022/03/24 05:13:53;;;;;;;3.75;1.35;;;2.00;99.90;;;1.85;100.00;101478.69;4954371;28;20674;-78
2022/03/24 05:16:20;;;;;;;3.13;1.10;;;2.10;99.90;;;1.82;100.00;101459.34;4963672;28;20209;-78
2022/03/24 05:18:48;;;;;;;4.57;1.45;;;2.00;99.90;;;1.74;100.00;101452.78;4973768;28;20205;-77
2022/03/24 05:21:16;;;;;;;2.20;1.00;;;2.10;99.90;;;1.66;100.00;101456.63;4973837;28;20209;-77
2022/03/24 05:23:45;;;;;;;1.95;0.77;;;2.00;99.90;;;1.48;100.00;101443.38;4957061;28;20232;-77
2022/03/24 05:26:13;;;;;;;1.75;0.77;;;1.90;99.90;;;1.38;100.00;101443.59;4973615;28;20202;-77
2022/03/24 05:28:41;;;;;;;6.00;1.73;;;2.40;99.90;;;1.58;100.00;101471.78;4970220;28;20217;-80
2022/03/24 05:31:09;;;;;;;4.43;1.40;;;2.50;99.90;;;1.59;100.00;101477.09;4970224;28;20212;-77
2022/03/24 05:33:37;;;;;;;4.57;1.45;;;1.80;99.90;;;1.60;100.00;101484.13;4971747;28;20209;-77
2022/03/24 05:36:05;;;;;;;6.78;1.90;;;2.00;99.90;;;1.65;100.00;101497.44;4971417;28;20224;-76
2022/03/24 05:38:33;;;;;;;7.40;2.17;;;1.80;99.90;;;1.56;100.00;101489.94;4972581;28;20221;-75
2022/03/24 05:41:01;;;;;;;5.72;1.73;;;1.90;99.90;;;1.69;100.00;101504.63;4971425;28;20207;-75
2022/03/24 05:43:30;;;;;;;5.47;1.65;;;1.80;99.90;;;1.64;100.00;101503.47;4972519;28;20233;-75
2022/03/24 05:45:58;;;;;;;4.65;1.42;;;2.30;99.90;;;1.49;100.00;101498.19;4971493;28;20233;-75
2022/03/24 05:48:26;;;;;;;5.45;1.70;;;1.80;99.90;;;1.51;100.00;101498.28;4972871;28;20217;-78
2022/03/24 05:51:27;;;;;;;5.47;1.63;;;2.30;99.90;;;1.51;100.00;101504.41;4959970;28;20206;-78
2022/03/24 05:53:55;;;;;;;7.10;1.90;;;1.70;99.90;;;1.57;100.00;101523.03;4971324;28;20218;-79
2022/03/24 05:56:23;;;;;;;3.75;1.17;;;1.80;99.90;;;1.44;100.00;101527.38;4953960;28;20205;-78
2022/03/24 05:58:52;;;;;;;7.15;2.10;;;1.90;99.90;;;1.44;100.00;101530.91;4971729;28;20210;-78
2022/03/24 06:01:20;;;;;;;5.38;1.60;;;1.70;99.90;;;1.42;100.00;101523.78;4963094;28;20212;-79
2022/03/24 06:03:52;;;;;;;5.95;1.70;;;2.00;99.90;;;1.44;100.00;101543.94;4959533;28;20233;-77
2022/03/24 06:06:22;;;;;;;4.93;1.50;;;2.30;99.90;;;1.57;100.00;101553.44;4955751;28;20209;-79
2022/03/24 06:08:52;;;;;;;11.48;3.05;;;1.70;99.90;;;1.62;100.00;101557.22;4950712;28;20674;-78
2022/03/24 06:11:21;;;;;;;3.15;1.10;;;1.70;99.90;;;1.73;100.00;101563.09;4956412;28;20201;-78
2022/03/24 06:13:49;;;;;;;2.65;0.90;;;1.80;99.90;;;1.73;100.00;101574.44;4972673;28;20205;-78
2022/03/24 06:16:18;;;;;;;2.15;0.80;;;1.80;99.90;;;1.83;100.00;101575.91;4973400;28;20221;-78
2022/03/24 06:18:47;;;;;;;4.03;1.27;;;2.00;99.90;;;1.88;100.00;101583.22;4972253;28;20205;-79
2022/03/24 06:21:15;;;;;;;4.25;1.33;;;2.00;99.90;;;1.91;100.00;101577.28;4972485;28;20212;-79
2022/03/24 06:23:43;;;;;;;3.38;1.60;;;2.00;99.90;;;2.02;100.00;101596.22;4971382;28;20237;-78
2022/03/24 06:26:11;;;;;;;2.00;0.95;;;1.90;99.90;;;2.34;100.00;101613.84;4971155;28;20606;-78
2022/03/24 06:28:41;;;;;;;3.20;1.15;;;2.20;99.90;;;2.41;100.00;101609.06;4971009;28;20220;-77
2022/03/24 06:31:09;;;;;;;1.08;0.60;;;2.40;99.90;;;2.52;100.00;101609.72;4971584;28;20228;-78
2022/03/24 06:33:37;;;;;;;1.45;0.70;;;2.30;99.90;;;2.47;100.00;101593.78;4972589;28;20247;-78
2022/03/24 06:36:06;;;;;;;2.05;0.93;;;2.40;99.90;;;2.70;100.00;101607.34;4950942;29;20221;-77
2022/03/24 06:38:34;;;;;;;2.33;0.93;;;2.50;99.90;;;2.88;100.00;101618.88;4965403;28;20201;-78
2022/03/24 06:41:04;;;;;;;1.33;0.68;;;2.70;99.90;;;3.03;100.00;101621.47;4972110;28;20709;-78
2022/03/24 06:43:36;;;;;;;3.70;1.85;;;3.20;99.90;;;3.09;100.00;101607.03;4972404;28;20221;-79
2022/03/24 06:46:06;;;;;;;1.05;0.60;;;2.80;99.90;;;3.14;100.00;101602.97;4971816;28;20229;-78
2022/03/24 06:48:34;;;;;;;2.00;0.88;;;2.80;99.90;;;3.10;100.00;101587.03;4978830;28;20209;-78
2022/03/24 06:51:03;;;;;;;1.20;0.60;;;2.80;99.90;;;3.26;100.00;101608.00;4979112;28;20204;-78
2022/03/24 06:53:31;;;;;;;3.60;1.20;;;2.90;99.90;;;3.26;100.00;101602.78;4970144;28;20690;-78
2022/03/24 06:56:00;;;;;;;3.97;1.30;;;3.00;99.90;;;3.27;100.00;101599.34;4978983;28;20233;-79
2022/03/24 06:58:28;;;;;;;3.92;1.30;;;2.90;99.90;;;3.35;100.00;101616.38;4978089;28;20209;-76
2022/03/24 07:00:56;;;;;;;6.90;2.00;;;3.10;99.90;;;3.52;100.00;101627.78;4978010;28;20209;-76
2022/03/24 07:03:24;;;;;;;6.18;1.80;;;3.10;99.90;;;3.67;100.00;101630.34;4975944;28;20241;-76
2022/03/24 07:05:52;;;;;;;7.38;2.17;;;3.20;99.90;;;3.75;100.00;101618.59;4975503;28;20221;-76
2022/03/24 07:08:20;;;;;;;6.13;1.80;;;3.30;99.90;;;4.04;100.00;101633.31;4975617;28;20201;-77
2022/03/24 07:10:48;;;;;;;8.40;2.58;;;3.30;99.90;;;4.19;100.00;101613.19;4975402;28;20589;-76
2022/03/24 07:13:17;;;;;;;6.97;2.10;;;3.60;99.90;;;4.26;100.00;101596.09;4975733;28;20209;-76
2022/03/24 07:15:45;;;;;;;7.22;2.25;;;3.60;99.90;;;4.66;100.00;101613.06;4976195;28;20235;-76
2022/03/24 07:18:15;;;;;;;5.28;1.60;;;3.80;99.90;;;4.72;100.00;101581.91;4977905;28;20216;-76
2022/03/24 07:20:43;;;;;;;5.55;1.63;;;4.10;99.90;;;4.83;100.00;101558.88;4977732;28;20201;-76
2022/03/24 07:23:11;;;;;;;3.65;1.13;;;4.30;99.90;;;4.91;100.00;101554.00;4976992;28;20228;-76
2022/03/24 07:25:42;;;;;;;2.75;1.00;;;4.50;99.90;;;4.90;100.00;101544.34;4977308;28;20228;-76
2022/03/24 07:28:14;;;;;;;6.57;1.85;;;4.50;99.90;;;4.91;100.00;101546.16;4976675;28;20209;-76
2022/03/24 07:30:43;;;;;;;5.22;1.52;;;4.60;99.90;;;5.06;100.00;101571.41;4977333;28;20205;-76
2022/03/24 07:33:11;;;;;;;8.52;2.20;;;4.70;99.90;;;5.21;100.00;101579.16;4977654;28;20408;-76
2022/03/24 07:35:39;;;;;;;4.30;1.27;;;4.70;99.90;;;5.46;100.00;101610.09;4976995;28;20233;-77
2022/03/24 07:38:07;;;;;;;3.60;1.13;;;4.90;99.90;;;5.49;100.00;101598.84;4953582;28;20197;-76
2022/03/24 07:40:36;;;;;;;2.60;0.90;;;5.00;99.90;;;5.44;100.00;101586.41;4964010;28;20209;-76
2022/03/24 07:43:05;;;;;;;2.15;0.80;;;5.10;99.90;;;5.69;100.00;101611.19;4975064;28;20205;-76
2022/03/24 07:45:38;;;;;;;0.85;0.50;;;5.20;99.90;;;5.92;100.00;101607.94;4978089;28;20229;-76
2022/03/24 07:48:17;;;;;;;2.08;0.77;;;5.40;99.90;;;5.92;99.85;101578.16;4977464;28;20650;-76
2022/03/24 07:50:48;;;;;;;3.13;1.00;;;5.50;99.90;;;6.00;98.95;101558.41;4977819;28;20224;-76
2022/03/24 07:53:21;;;;;;;4.03;1.23;;;5.70;99.90;;;5.97;99.46;101550.38;4977916;28;20229;-76
2022/03/24 07:55:50;;;;;;;4.30;1.35;;;5.70;99.90;;;6.37;98.29;101588.09;4975598;28;20225;-77
2022/03/24 07:58:18;;;;;;;3.75;2.80;;;5.70;99.90;;;6.41;98.07;101554.97;4955907;28;20213;-76
2022/03/24 08:00:46;;;;;;;6.10;1.65;;;5.80;99.90;;;6.60;96.96;101544.47;4973366;28;20205;-77
2022/03/24 08:03:18;;;;;;;3.05;0.95;;;5.90;99.90;;;6.71;97.03;101551.06;4974604;28;20212;-77
2022/03/24 08:05:47;;;;;;;1.67;0.63;;;6.10;99.90;;;6.64;97.19;101534.97;4974843;28;20268;-77
2022/03/24 08:08:17;;;;;;;2.65;0.80;;;6.20;99.90;;;7.09;96.04;101571.91;4975317;28;20197;-77
2022/03/24 08:10:48;;;;;;;2.55;0.80;;;6.40;99.90;;;7.27;93.25;101536.72;4956812;28;20220;-77
2022/03/24 08:13:18;;;;;;;3.47;1.30;;;6.50;99.90;;;7.35;91.20;101495.81;4975609;28;20205;-76
2022/03/24 08:15:48;;;;;;;2.95;0.88;;;6.80;99.90;;;7.55;88.95;101467.63;4974856;28;20631;-75
2022/03/24 08:18:18;;;;;;;4.60;1.25;;;6.90;99.90;;;7.82;86.76;101435.28;4974652;28;20673;-76
2022/03/24 08:20:51;;;;;;;2.08;0.70;;;7.00;99.90;;;8.00;86.39;101431.56;4975250;28;20216;-76
2022/03/24 08:23:20;;;;;;;3.03;0.98;;;7.10;99.90;;;7.95;86.87;101406.81;4963993;28;20201;-76
2022/03/24 08:25:49;;;;;;;4.75;1.25;;;7.20;99.90;;;8.21;87.02;101423.50;4957532;28;20229;-79
2022/03/24 08:28:17;;;;;;;3.10;0.88;;;7.30;99.90;;;8.43;85.25;101408.44;4957570;28;20227;-76
2022/03/24 08:30:45;;;;;;;3.33;1.00;;;7.50;99.90;;;8.56;83.80;101387.81;4956997;28;20212;-79
2022/03/24 08:33:14;;;;;;;4.28;1.20;;;7.70;99.90;;;8.84;81.67;101364.94;4975329;28;20209;-76
2022/03/24 08:35:42;;;;;;;4.45;1.20;;;7.90;99.90;;;8.83;80.58;101318.31;4973720;28;20232;-76
2022/03/24 08:38:10;;;;;;;2.40;0.82;;;8.10;99.90;;;9.39;79.08;101338.47;4974896;28;20569;-75
2022/03/24 08:40:39;;;;;;;3.25;1.00;;;8.40;99.90;;;9.38;79.27;101310.28;4973920;28;20206;-76
2022/03/24 08:43:07;;;;;;;2.47;0.80;;;8.50;99.90;;;9.61;78.64;101308.25;4957400;28;20205;-76
2022/03/24 08:45:38;;;;;;;3.15;1.10;;;8.70;99.90;;;9.74;78.58;101301.56;4974480;28;20244;-76
2022/03/24 08:48:07;;;;;;;2.30;0.75;;;8.80;99.90;;;9.92;78.58;101289.72;4974614;28;20201;-75
2022/03/24 08:50:36;;;;;;;3.03;0.88;;;9.00;99.90;;;9.94;78.64;101281.81;4974020;28;20214;-75
2022/03/24 08:53:05;;;;;;;6.15;1.58;;;9.10;99.90;;;10.19;78.43;101283.31;4974414;28;20217;-76
2022/03/24 08:55:33;;;;;;;5.82;1.50;;;9.30;99.90;;;10.48;76.93;101268.19;4958627;28;20226;-76
2022/03/24 08:58:01;;;;;;;4.63;2.17;;;9.50;99.90;;;10.45;75.88;101226.72;4989219;28;20209;-76
2022/03/24 09:00:29;;;;;;;4.30;1.13;;;9.70;99.90;;;10.56;73.99;101185.53;4941178;28;20201;-75
2022/03/24 09:02:57;;;;;;;3.40;1.27;;;9.80;99.90;;;10.96;71.51;101162.50;4974073;28;20201;-76
2022/03/24 09:05:26;;;;;;;2.50;0.75;;;10.10;99.90;;;10.98;71.29;101138.72;4974208;28;20240;-76
2022/03/24 09:07:54;;;;;;;3.15;0.93;;;10.20;99.90;;;11.17;71.97;101138.19;4973659;28;20212;-76
2022/03/24 09:10:22;;;;;;;4.80;1.30;;;10.30;99.90;;;11.21;71.30;101127.66;4956199;28;20204;-76
2022/03/24 09:12:50;;;;;;;4.68;1.15;;;10.50;99.90;;;11.37;70.56;101106.75;4973743;28;20201;-75
2022/03/24 09:15:19;;;;;;;3.33;1.38;;;10.60;99.90;;;11.96;69.26;101114.78;4973834;28;20229;-77
2022/03/24 09:17:48;;;;;;;3.00;0.88;;;10.80;99.90;;;11.94;67.57;101059.09;4973697;28;20233;-77
2022/03/24 09:20:18;;;;;;;3.13;0.90;;;11.00;99.90;;;11.93;66.37;101019.31;4973279;28;20216;-77
2022/03/24 09:22:48;;;;;;;5.95;1.50;;;11.10;99.90;;;12.32;65.37;101011.84;4973631;28;20217;-77
2022/03/24 09:25:19;;;;;;;3.55;0.95;;;11.30;99.90;;;12.34;64.93;100959.69;4971555;28;20240;-77
2022/03/24 09:27:47;;;;;;;4.53;1.27;;;11.50;99.90;;;12.47;64.07;100958.06;4963570;28;20197;-77
2022/03/24 09:30:18;;;;;;;2.58;0.93;;;11.60;99.90;;;12.44;64.72;100945.66;4973535;28;20684;-77
2022/03/24 09:32:48;;;;;;;4.68;1.25;;;11.90;99.90;;;12.77;63.23;100925.59;4973531;28;20213;-77
2022/03/24 09:35:16;;;;;;;1.70;0.60;;;12.60;99.90;;;13.05;62.74;100914.31;4973103;28;20220;-76
2022/03/24 09:37:44;;;;;;;2.15;0.73;;;12.20;99.90;;;13.18;61.88;100887.88;4972645;28;20210;-77
2022/03/24 09:40:13;;;;;;;1.95;0.60;;;12.30;99.90;;;13.25;62.73;100889.69;4955843;28;20212;-78
2022/03/24 09:42:42;;;;;;;3.55;1.60;;;12.50;99.90;;;13.38;60.92;100851.69;4974129;28;20218;-78
2022/03/24 09:45:13;;;;;;;2.10;0.65;;;12.70;99.90;;;13.48;61.42;100864.13;4973221;28;20249;-77
2022/03/24 09:47:42;;;;;;;3.28;1.20;;;12.90;99.90;;;13.57;61.61;100863.25;4973121;28;20205;-75
2022/03/24 09:50:12;;;;;;;3.90;1.15;;;13.00;99.90;;;13.81;61.73;100855.38;4971578;28;20220;-75
2022/03/24 09:52:41;;;;;;;5.78;1.58;;;13.20;99.90;;;14.09;61.19;100858.97;4952580;29;20217;-75
2022/03/24 09:55:16;;;;;;;5.95;1.55;;;13.40;99.90;;;14.25;61.49;100867.84;4952865;28;20239;-75
2022/03/24 09:57:48;;;;;;;6.10;1.88;;;13.60;99.90;;;13.88;59.04;100748.16;4972011;28;20587;-75
2022/03/24 10:00:36;;;;;;;6.40;1.67;;;13.70;99.90;;;14.27;58.50;100772.97;4971733;28;20209;-75
2022/03/24 10:03:17;;;;;;;6.55;1.80;;;13.80;99.90;;;14.36;58.32;100762.34;4972383;28;20206;-75
2022/03/24 10:06:07;;;;;;;6.10;1.77;;;14.00;99.90;;;14.43;58.07;100739.31;4953692;28;20245;-75
2022/03/24 10:08:37;;;;;;;4.68;1.60;;;14.10;99.90;;;14.52;57.90;100744.63;4971740;28;20213;-75
2022/03/24 10:11:08;;;;;;;3.85;1.08;;;14.20;99.90;;;14.93;57.74;100764.03;4971077;28;20206;-75
2022/03/24 10:13:54;;;;;;;5.20;2.50;;;14.30;99.90;;;14.99;56.62;100718.72;4954426;28;20216;-75
2022/03/24 10:16:34;;;;;;;5.38;1.83;;;14.60;99.90;;;14.93;56.18;100678.81;4954760;28;20213;-75
2022/03/24 10:19:15;;;;;;;4.93;1.38;;;14.70;99.90;;;15.16;56.24;100696.44;4970917;28;20224;-75
2022/03/24 10:21:50;;;;;;;5.75;1.70;;;14.90;99.90;;;15.08;55.28;100645.88;4971165;28;20213;-75
2022/03/24 10:24:20;;;;;;;7.68;2.35;;;15.00;99.90;;;15.43;54.70;100642.09;4954243;28;20235;-75
2022/03/24 10:27:02;;;;;;;3.40;1.20;;;15.20;99.90;;;15.44;53.87;100602.09;4970717;28;20690;-75
2022/03/24 10:29:33;;;;;;;4.32;1.50;;;15.20;99.90;;;15.89;54.57;100653.31;4970899;28;20216;-75